createdAt,value
2023-04-26T00:00:45.693Z,5.32
2023-04-26T00:03:13.485Z,5.29
2023-04-26T00:05:40.745Z,5.32
2023-04-26T00:08:07.314Z,5.29
2023-04-26T00:10:33.845Z,5.30
2023-04-26T00:13:00.448Z,5.26
2023-04-26T00:15:27.139Z,5.35
2023-04-26T00:17:53.703Z,5.19
2023-04-26T00:20:20.426Z,5.21
2023-04-26T00:22:46.905Z,5.15
2023-04-26T00:25:13.927Z,5.16
2023-04-26T00:27:40.554Z,5.25
2023-04-26T00:30:07.764Z,5.25
2023-04-26T00:32:35.607Z,5.25
2023-04-26T00:35:04.611Z,5.23
2023-04-26T00:37:31.233Z,5.24
2023-04-26T00:39:57.744Z,5.29
2023-04-26T00:42:24.322Z,5.18
2023-04-26T00:44:55.178Z,5.29
2023-04-26T00:47:21.719Z,5.35
2023-04-26T00:49:48.381Z,5.33
2023-04-26T00:52:15.393Z,5.38
2023-04-26T00:54:42.515Z,5.41
2023-04-26T00:57:09.896Z,5.37
2023-04-26T00:59:37.050Z,5.33
2023-04-26T01:02:04.006Z,5.27
2023-04-26T01:04:30.948Z,5.29
2023-04-26T01:06:58.358Z,5.26
2023-04-26T01:09:24.911Z,5.26
2023-04-26T01:11:52.578Z,5.30
2023-04-26T01:14:19.333Z,5.29
2023-04-26T01:16:48.780Z,5.20
2023-04-26T01:19:18.539Z,5.20
2023-04-26T01:21:45.726Z,5.09
2023-04-26T01:24:14.010Z,5.19
2023-04-26T01:26:45.590Z,5.15
2023-04-26T01:29:18.721Z,5.14
2023-04-26T01:31:45.963Z,5.09
2023-04-26T01:34:12.862Z,5.07
2023-04-26T01:36:39.526Z,5.09
2023-04-26T01:39:06.300Z,5.15
2023-04-26T01:41:33.699Z,5.02
2023-04-26T01:44:01.345Z,5.03
2023-04-26T01:46:28.055Z,4.99
2023-04-26T01:48:54.937Z,4.99
2023-04-26T01:51:23.476Z,5.10
2023-04-26T01:53:50.015Z,5.02
2023-04-26T01:56:16.725Z,4.96
2023-04-26T01:58:43.437Z,4.97
2023-04-26T02:01:10.058Z,4.95
2023-04-26T02:03:37.146Z,4.92
2023-04-26T02:06:03.852Z,5.03
2023-04-26T02:08:30.485Z,5.06
2023-04-26T02:10:57.125Z,5.03
2023-04-26T02:13:23.701Z,5.03
2023-04-26T02:15:51.350Z,4.96
2023-04-26T02:18:21.893Z,4.87
2023-04-26T02:20:50.011Z,4.87
2023-04-26T02:23:16.690Z,4.75
2023-04-26T02:25:46.850Z,4.83
2023-04-26T02:28:13.733Z,4.87
2023-04-26T02:30:40.472Z,4.73
2023-04-26T02:33:08.938Z,4.81
2023-04-26T02:35:39.544Z,4.81
2023-04-26T02:38:06.052Z,4.69
2023-04-26T02:40:32.693Z,4.61
2023-04-26T02:43:00.452Z,4.68
2023-04-26T02:45:27.242Z,4.61
2023-04-26T02:47:53.874Z,4.61
2023-04-26T02:50:20.992Z,4.74
2023-04-26T02:52:48.694Z,4.60
2023-04-26T02:55:15.251Z,4.59
2023-04-26T02:57:42.701Z,4.64
2023-04-26T03:00:09.845Z,4.64
2023-04-26T03:02:36.626Z,4.69
2023-04-26T03:05:03.740Z,4.58
2023-04-26T03:07:31.401Z,4.63
2023-04-26T03:09:58.041Z,4.59
2023-04-26T03:12:24.559Z,4.56
2023-04-26T03:14:51.210Z,4.55
2023-04-26T03:17:18.194Z,4.68
2023-04-26T03:19:44.906Z,4.65
2023-04-26T03:22:15.964Z,4.62
2023-04-26T03:24:43.601Z,4.49
2023-04-26T03:27:10.862Z,4.54
2023-04-26T03:29:37.633Z,4.54
2023-04-26T03:32:04.841Z,4.54
2023-04-26T03:34:31.623Z,4.44
2023-04-26T03:36:58.290Z,4.50
2023-04-26T03:39:24.939Z,4.50
2023-04-26T03:41:52.459Z,4.64
2023-04-26T03:44:18.993Z,4.58
2023-04-26T03:46:45.672Z,4.39
2023-04-26T03:49:12.167Z,4.48
2023-04-26T03:51:38.686Z,4.48
2023-04-26T03:54:05.420Z,4.48
2023-04-26T03:56:32.009Z,4.37
2023-04-26T03:58:59.302Z,4.45
2023-04-26T04:01:26.931Z,4.39
2023-04-26T04:03:54.035Z,4.19
2023-04-26T04:06:21.789Z,4.33
2023-04-26T04:08:48.440Z,4.47
2023-04-26T04:11:16.735Z,4.42
2023-04-26T04:13:43.520Z,4.42
2023-04-26T04:16:10.504Z,4.38
2023-04-26T04:18:37.185Z,4.41
2023-04-26T04:21:03.963Z,4.41
2023-04-26T04:23:30.812Z,4.46
2023-04-26T04:25:58.285Z,4.46
2023-04-26T04:28:24.839Z,4.48
2023-04-26T04:30:51.403Z,4.50
2023-04-26T04:33:19.102Z,4.35
2023-04-26T04:35:45.945Z,4.44
2023-04-26T04:38:13.130Z,4.54
2023-04-26T04:40:39.966Z,4.60
2023-04-26T04:43:07.209Z,4.57
2023-04-26T04:45:35.450Z,4.59
2023-04-26T04:48:05.114Z,4.61
2023-04-26T04:50:32.173Z,4.59
2023-04-26T04:52:58.832Z,4.56
2023-04-26T04:55:25.724Z,4.54
2023-04-26T04:57:52.229Z,4.51
2023-04-26T05:00:19.370Z,4.60
2023-04-26T05:02:58.415Z,4.48
2023-04-26T05:05:25.805Z,4.52
2023-04-26T05:07:52.439Z,4.49
2023-04-26T05:10:19.102Z,4.36
2023-04-26T05:12:46.480Z,4.49
2023-04-26T05:15:13.105Z,4.48
2023-04-26T05:17:39.890Z,4.47
2023-04-26T05:20:14.779Z,4.57
2023-04-26T05:22:41.530Z,4.60
2023-04-26T05:25:09.158Z,4.54
2023-04-26T05:27:37.324Z,4.60
2023-04-26T05:30:24.182Z,4.62
2023-04-26T05:33:06.996Z,4.71
2023-04-26T05:35:48.707Z,4.74
2023-04-26T05:38:15.550Z,4.83
2023-04-26T05:40:42.095Z,4.77
2023-04-26T05:43:08.672Z,4.76
2023-04-26T05:45:37.741Z,4.73
2023-04-26T05:48:05.361Z,4.61
2023-04-26T05:50:32.097Z,4.70
2023-04-26T05:52:58.820Z,4.63
2023-04-26T05:55:25.492Z,4.66
2023-04-26T05:57:52.122Z,4.73
2023-04-26T06:00:22.639Z,4.79
2023-04-26T06:02:49.284Z,4.77
2023-04-26T06:05:18.077Z,4.87
2023-04-26T06:07:44.804Z,4.89
2023-04-26T06:10:13.012Z,4.99
2023-04-26T06:12:40.044Z,5.11
2023-04-26T06:15:07.514Z,5.16
2023-04-26T06:17:37.546Z,5.11
2023-04-26T06:20:05.550Z,5.26
2023-04-26T06:22:32.076Z,5.29
2023-04-26T06:24:58.714Z,5.31
2023-04-26T06:27:26.420Z,5.35
2023-04-26T06:29:54.018Z,5.32
2023-04-26T06:32:22.210Z,5.19
2023-04-26T06:34:50.031Z,5.13
2023-04-26T06:37:16.692Z,5.22
2023-04-26T06:39:43.384Z,5.42
2023-04-26T06:42:11.533Z,5.41
2023-04-26T06:45:06.892Z,5.59
2023-04-26T06:47:34.742Z,5.82
2023-04-26T06:50:01.351Z,6.02
2023-04-26T06:52:29.740Z,6.03
2023-04-26T06:54:57.739Z,6.05
2023-04-26T06:57:24.595Z,5.99
2023-04-26T06:59:51.509Z,6.12
2023-04-26T07:02:18.302Z,6.13
2023-04-26T07:04:45.503Z,5.95
2023-04-26T07:07:13.632Z,5.82
2023-04-26T07:09:41.065Z,5.91
2023-04-26T07:12:07.753Z,5.95
2023-04-26T07:14:37.097Z,5.88
2023-04-26T07:17:05.057Z,6.04
2023-04-26T07:19:31.661Z,6.10
2023-04-26T07:21:58.161Z,6.13
2023-04-26T07:24:24.822Z,6.14
2023-04-26T07:26:51.361Z,6.05
2023-04-26T07:29:18.895Z,6.10
2023-04-26T07:31:46.422Z,6.16
2023-04-26T07:34:13.141Z,6.13
2023-04-26T07:36:39.734Z,6.17
2023-04-26T07:39:06.771Z,6.24
2023-04-26T07:41:33.361Z,6.49
2023-04-26T07:43:59.851Z,7.69
2023-04-26T07:46:26.389Z,8.25
2023-04-26T07:48:52.988Z,8.04
2023-04-26T07:51:19.473Z,7.50
2023-04-26T07:53:46.289Z,7.03
2023-04-26T07:56:12.861Z,6.85
2023-04-26T07:58:39.635Z,6.73
2023-04-26T08:01:06.601Z,7.14
2023-04-26T08:03:33.414Z,7.33
2023-04-26T08:06:00.536Z,7.28
2023-04-26T08:08:28.038Z,7.27
2023-04-26T08:10:55.681Z,7.21
2023-04-26T08:13:22.586Z,7.47
2023-04-26T08:15:49.106Z,7.87
2023-04-26T08:18:15.577Z,7.88
2023-04-26T08:20:42.483Z,8.07
2023-04-26T08:23:09.130Z,8.22
2023-04-26T08:25:35.888Z,7.77
2023-04-26T08:28:02.573Z,7.41
2023-04-26T08:30:29.584Z,7.31
2023-04-26T08:32:56.643Z,7.17
2023-04-26T08:35:23.264Z,7.19
2023-04-26T08:37:49.813Z,7.01
2023-04-26T08:40:24.909Z,7.09
2023-04-26T08:42:53.484Z,7.15
2023-04-26T08:45:21.505Z,7.11
2023-04-26T08:47:53.731Z,6.94
2023-04-26T08:50:23.177Z,6.80
2023-04-26T08:52:51.505Z,6.80
2023-04-26T08:55:20.116Z,6.81
2023-04-26T08:57:48.382Z,6.99
2023-04-26T09:00:17.079Z,7.23
2023-04-26T09:02:49.673Z,7.40
2023-04-26T09:05:17.092Z,7.57
2023-04-26T09:07:48.121Z,7.60
2023-04-26T09:10:22.051Z,7.59
2023-04-26T09:12:53.278Z,7.49
2023-04-26T09:15:22.725Z,7.61
2023-04-26T09:17:51.402Z,8.06
2023-04-26T09:20:29.084Z,7.74
2023-04-26T09:23:09.941Z,7.73
2023-04-26T09:25:37.756Z,7.54
2023-04-26T09:28:18.468Z,7.68
2023-04-26T09:30:44.944Z,7.67
2023-04-26T09:33:11.481Z,7.61
2023-04-26T09:35:40.643Z,7.63
2023-04-26T09:38:12.210Z,7.67
2023-04-26T09:40:47.619Z,7.62
2023-04-26T09:43:21.892Z,8.01
2023-04-26T09:45:52.392Z,8.13
2023-04-26T09:48:30.855Z,8.30
2023-04-26T09:50:58.933Z,8.36
2023-04-26T09:53:41.484Z,8.49
2023-04-26T09:56:13.505Z,8.54
2023-04-26T09:58:58.276Z,8.53
2023-04-26T10:01:26.624Z,8.48
2023-04-26T10:03:53.472Z,8.32
2023-04-26T10:06:20.304Z,8.39
2023-04-26T10:08:46.883Z,8.52
2023-04-26T10:11:13.875Z,8.26
2023-04-26T10:13:41.783Z,8.36
2023-04-26T10:16:09.947Z,8.57
2023-04-26T10:18:37.291Z,8.87
2023-04-26T10:21:14.352Z,9.03
2023-04-26T10:23:41.502Z,9.07
2023-04-26T10:26:47.054Z,9.16
2023-04-26T10:29:14.591Z,8.91
2023-04-26T10:32:03.888Z,8.69
2023-04-26T10:34:31.780Z,8.76
2023-04-26T10:37:12.759Z,8.70
2023-04-26T10:39:41.757Z,8.76
2023-04-26T10:42:27.960Z,8.74
2023-04-26T10:44:59.764Z,8.98
2023-04-26T10:47:34.568Z,9.25
2023-04-26T10:50:11.316Z,9.71
2023-04-26T10:53:04.303Z,10.08
2023-04-26T10:55:41.667Z,10.27
2023-04-26T10:58:33.951Z,10.28
2023-04-26T11:01:11.775Z,10.25
2023-04-26T11:03:41.351Z,10.45
2023-04-26T11:06:09.810Z,10.53
2023-04-26T11:08:36.947Z,10.52
2023-04-26T11:11:03.368Z,10.57
2023-04-26T11:13:35.250Z,10.35
2023-04-26T11:16:04.206Z,9.99
2023-04-26T11:18:32.237Z,9.83
2023-04-26T11:20:59.502Z,9.64
2023-04-26T11:23:29.593Z,9.63
2023-04-26T11:26:00.340Z,9.53
2023-04-26T11:28:26.892Z,9.55
2023-04-26T11:30:54.039Z,9.84
2023-04-26T11:33:24.873Z,10.10
2023-04-26T11:35:55.683Z,10.04
2023-04-26T11:38:23.222Z,9.90
2023-04-26T11:40:57.614Z,10.10
2023-04-26T11:43:37.682Z,10.66
2023-04-26T11:46:05.747Z,10.96
2023-04-26T11:48:34.988Z,11.05
2023-04-26T11:51:03.839Z,11.06
2023-04-26T11:53:37.803Z,11.01
2023-04-26T11:56:14.122Z,10.76
2023-04-26T11:58:40.612Z,10.57
2023-04-26T12:01:07.101Z,10.66
2023-04-26T12:03:38.308Z,10.58
2023-04-26T12:06:05.133Z,10.26
2023-04-26T12:08:33.445Z,10.38
2023-04-26T12:11:02.066Z,10.35
2023-04-26T12:13:29.663Z,10.50
2023-04-26T12:15:56.362Z,10.61
2023-04-26T12:18:30.309Z,10.67
2023-04-26T12:20:59.270Z,10.69
2023-04-26T12:23:26.621Z,10.58
2023-04-26T12:26:00.509Z,10.72
2023-04-26T12:28:26.948Z,10.63
2023-04-26T12:30:53.441Z,10.45
2023-04-26T12:33:22.943Z,10.46
2023-04-26T12:35:50.329Z,10.30
2023-04-26T12:38:17.608Z,10.24
2023-04-26T12:40:46.886Z,10.31
2023-04-26T12:43:13.356Z,10.08
2023-04-26T12:45:39.848Z,10.15
2023-04-26T12:48:06.584Z,10.03
2023-04-26T12:50:33.258Z,9.96
2023-04-26T12:52:59.815Z,9.85
2023-04-26T12:55:26.724Z,9.86
2023-04-26T12:57:53.248Z,10.20
2023-04-26T13:00:21.468Z,10.35
2023-04-26T13:02:48.049Z,10.65
2023-04-26T13:05:14.606Z,10.78
2023-04-26T13:07:43.738Z,10.61
2023-04-26T13:10:12.921Z,10.54
2023-04-26T13:12:40.253Z,10.43
2023-04-26T13:15:08.410Z,10.45
2023-04-26T13:17:39.956Z,10.61
2023-04-26T13:20:07.439Z,10.41
2023-04-26T13:22:34.639Z,10.51
2023-04-26T13:25:01.145Z,10.33
2023-04-26T13:27:30.527Z,10.64
2023-04-26T13:29:58.337Z,10.67
2023-04-26T13:32:24.874Z,10.64
2023-04-26T13:34:51.814Z,10.45
2023-04-26T13:37:21.217Z,10.55
2023-04-26T13:39:48.029Z,10.72
2023-04-26T13:42:16.216Z,10.72
2023-04-26T13:44:42.985Z,10.68
2023-04-26T13:47:09.449Z,10.82
2023-04-26T13:49:36.197Z,10.65
2023-04-26T13:52:02.932Z,10.57
2023-04-26T13:54:29.699Z,10.56
2023-04-26T13:56:58.274Z,10.98
2023-04-26T13:59:24.774Z,10.98
2023-04-26T14:01:54.248Z,11.02
2023-04-26T14:04:22.026Z,11.16
2023-04-26T14:06:48.878Z,10.93
2023-04-26T14:09:15.492Z,10.85
2023-04-26T14:11:42.137Z,10.93
2023-04-26T14:14:08.674Z,10.93
2023-04-26T14:16:35.345Z,10.91
2023-04-26T14:19:01.929Z,11.06
2023-04-26T14:21:28.417Z,10.94
2023-04-26T14:23:54.933Z,10.79
2023-04-26T14:26:21.630Z,10.92
2023-04-26T14:28:48.082Z,10.76
2023-04-26T14:31:17.665Z,10.57
2023-04-26T14:33:44.280Z,10.60
2023-04-26T14:36:11.023Z,10.71
2023-04-26T14:38:37.626Z,10.95
2023-04-26T14:41:04.120Z,10.93
2023-04-26T14:43:30.585Z,10.74
2023-04-26T14:45:58.738Z,10.79
2023-04-26T14:48:25.951Z,10.85
2023-04-26T14:51:01.968Z,10.84
2023-04-26T14:53:28.418Z,10.72
2023-04-26T14:55:59.143Z,10.78
2023-04-26T14:58:26.431Z,10.94
2023-04-26T15:00:53.586Z,10.84
2023-04-26T15:03:20.830Z,10.75
2023-04-26T15:05:48.721Z,10.75
2023-04-26T15:08:15.542Z,10.76
2023-04-26T15:10:42.128Z,10.62
2023-04-26T15:13:08.685Z,10.58
2023-04-26T15:15:35.168Z,10.45
2023-04-26T15:18:01.962Z,10.50
2023-04-26T15:20:28.662Z,10.68
2023-04-26T15:22:55.214Z,10.95
2023-04-26T15:25:21.735Z,10.78
2023-04-26T15:27:50.303Z,10.72
2023-04-26T15:30:16.754Z,10.76
2023-04-26T15:32:47.332Z,10.81
2023-04-26T15:35:15.333Z,10.79
2023-04-26T15:37:41.958Z,10.87
2023-04-26T15:40:10.501Z,10.66
2023-04-26T15:42:37.560Z,10.68
2023-04-26T15:45:04.287Z,10.85
2023-04-26T15:47:30.989Z,10.70
2023-04-26T15:50:02.096Z,10.72
2023-04-26T15:52:28.588Z,10.66
2023-04-26T15:54:55.232Z,10.76
2023-04-26T15:57:21.774Z,10.78
2023-04-26T15:59:48.736Z,10.65
2023-04-26T16:02:15.319Z,10.66
2023-04-26T16:04:42.133Z,10.52
2023-04-26T16:07:08.836Z,10.67
2023-04-26T16:09:36.109Z,10.59
2023-04-26T16:12:03.533Z,10.60
2023-04-26T16:14:31.184Z,10.55
2023-04-26T16:17:00.697Z,10.60
2023-04-26T16:19:27.533Z,10.60
2023-04-26T16:21:54.052Z,10.58
2023-04-26T16:24:20.951Z,10.50
2023-04-26T16:26:47.470Z,10.41
2023-04-26T16:29:14.777Z,10.37
2023-04-26T16:31:41.447Z,10.45
2023-04-26T16:34:08.024Z,10.41
2023-04-26T16:36:35.469Z,10.35
2023-04-26T16:39:01.967Z,10.29
2023-04-26T16:41:28.534Z,10.28
2023-04-26T16:43:56.012Z,10.18
2023-04-26T16:46:23.387Z,10.16
2023-04-26T16:48:50.332Z,10.07
2023-04-26T16:51:16.857Z,10.14
2023-04-26T16:53:43.395Z,10.04
2023-04-26T16:56:10.126Z,9.99
2023-04-26T16:58:37.431Z,9.92
2023-04-26T17:01:04.678Z,9.90
2023-04-26T17:03:31.346Z,9.89
2023-04-26T17:05:58.208Z,9.86
2023-04-26T17:08:24.749Z,9.83
2023-04-26T17:10:51.900Z,9.77
2023-04-26T17:13:18.934Z,9.74
2023-04-26T17:15:46.135Z,9.73
2023-04-26T17:18:12.738Z,9.71
2023-04-26T17:20:39.356Z,9.63
2023-04-26T17:23:07.790Z,9.61
2023-04-26T17:25:34.554Z,9.58
2023-04-26T17:28:01.020Z,9.53
2023-04-26T17:30:27.765Z,9.43
2023-04-26T17:32:54.245Z,9.47
2023-04-26T17:35:20.955Z,9.47
2023-04-26T17:37:49.840Z,9.46
2023-04-26T17:40:18.006Z,9.41
2023-04-26T17:42:45.991Z,9.36
2023-04-26T17:45:14.153Z,9.37
2023-04-26T17:47:41.773Z,9.27
2023-04-26T17:50:09.261Z,9.22
2023-04-26T17:52:36.235Z,9.19
2023-04-26T17:55:05.214Z,9.14
2023-04-26T17:57:32.010Z,9.09
2023-04-26T17:59:59.070Z,9.08
2023-04-26T18:02:26.024Z,8.95
2023-04-26T18:04:54.787Z,8.97
2023-04-26T18:07:22.006Z,8.92
2023-04-26T18:09:49.056Z,8.81
2023-04-26T18:12:15.980Z,8.69
2023-04-26T18:14:45.638Z,8.56
2023-04-26T18:17:13.362Z,8.46
2023-04-26T18:19:40.048Z,8.27
2023-04-26T18:22:07.199Z,8.26
2023-04-26T18:24:34.616Z,8.12
2023-04-26T18:27:02.591Z,8.10
2023-04-26T18:29:29.555Z,8.03
2023-04-26T18:31:56.155Z,7.93
2023-04-26T18:34:22.726Z,7.89
2023-04-26T18:36:49.381Z,7.77
2023-04-26T18:39:16.081Z,7.68
2023-04-26T18:41:42.688Z,7.59
2023-04-26T18:44:13.139Z,7.53
2023-04-26T18:46:41.482Z,7.49
2023-04-26T18:49:08.718Z,7.42
2023-04-26T18:51:35.546Z,7.38
2023-04-26T18:54:02.349Z,7.33
2023-04-26T18:56:29.783Z,7.27
2023-04-26T18:58:56.361Z,7.22
2023-04-26T19:01:23.265Z,7.17
2023-04-26T19:03:50.005Z,7.14
2023-04-26T19:06:16.730Z,7.15
2023-04-26T19:08:44.349Z,7.08
2023-04-26T19:11:12.395Z,7.02
2023-04-26T19:13:40.264Z,6.98
2023-04-26T19:16:08.162Z,6.97
2023-04-26T19:18:40.325Z,6.90
2023-04-26T19:21:08.490Z,6.94
2023-04-26T19:23:36.097Z,6.85
2023-04-26T19:26:08.121Z,6.82
2023-04-26T19:28:35.215Z,6.77
2023-04-26T19:31:01.873Z,6.85
2023-04-26T19:33:28.715Z,6.86
2023-04-26T19:35:56.551Z,6.76
2023-04-26T19:38:24.206Z,6.76
2023-04-26T19:40:53.678Z,6.64
2023-04-26T19:43:20.838Z,6.66
2023-04-26T19:45:47.762Z,6.65
2023-04-26T19:48:14.362Z,6.60
2023-04-26T19:50:42.287Z,6.60
2023-04-26T19:53:09.799Z,6.59
2023-04-26T19:55:37.506Z,6.51
2023-04-26T19:58:05.032Z,6.38
2023-04-26T20:00:31.847Z,6.37
2023-04-26T20:02:59.098Z,6.34
2023-04-26T20:05:26.542Z,6.27
2023-04-26T20:07:53.743Z,6.20
2023-04-26T20:10:23.742Z,6.32
2023-04-26T20:12:50.472Z,6.32
2023-04-26T20:15:17.390Z,6.37
2023-04-26T20:17:43.924Z,6.28
2023-04-26T20:20:11.912Z,6.28
2023-04-26T20:22:39.441Z,6.27
2023-04-26T20:25:06.877Z,6.26
2023-04-26T20:27:33.772Z,6.29
2023-04-26T20:30:01.060Z,6.20
2023-04-26T20:32:27.792Z,6.25
2023-04-26T20:34:54.723Z,6.25
2023-04-26T20:37:22.053Z,6.22
2023-04-26T20:39:49.022Z,6.17
2023-04-26T20:42:16.055Z,6.10
2023-04-26T20:44:42.881Z,6.19
2023-04-26T20:47:09.391Z,6.11
2023-04-26T20:49:35.910Z,6.08
2023-04-26T20:52:02.401Z,6.06
2023-04-26T20:54:28.896Z,6.10
2023-04-26T20:56:55.568Z,6.05
2023-04-26T20:59:23.083Z,6.08
2023-04-26T21:01:50.803Z,6.15
2023-04-26T21:04:17.698Z,6.16
2023-04-26T21:06:44.574Z,6.23
2023-04-26T21:09:11.597Z,6.25
2023-04-26T21:11:38.095Z,6.31
2023-04-26T21:14:05.152Z,6.33
2023-04-26T21:16:31.654Z,6.31
2023-04-26T21:18:58.140Z,6.33
2023-04-26T21:21:26.995Z,6.38
2023-04-26T21:23:54.625Z,6.35
2023-04-26T21:26:21.362Z,6.38
2023-04-26T21:28:48.697Z,6.30
2023-04-26T21:31:15.821Z,6.31
2023-04-26T21:33:42.588Z,6.34
2023-04-26T21:36:09.369Z,6.29
2023-04-26T21:38:35.890Z,6.36
2023-04-26T21:41:02.419Z,6.35
2023-04-26T21:43:28.887Z,6.33
2023-04-26T21:45:57.808Z,6.32
2023-04-26T21:48:24.972Z,6.25
2023-04-26T21:50:51.772Z,6.26
2023-04-26T21:53:18.674Z,6.32
2023-04-26T21:55:53.383Z,6.22
2023-04-26T21:58:21.431Z,6.16
2023-04-26T22:00:48.783Z,6.16
2023-04-26T22:03:16.201Z,6.15
2023-04-26T22:05:42.882Z,6.17
2023-04-26T22:08:09.316Z,6.02
2023-04-26T22:10:36.401Z,6.14
2023-04-26T22:13:03.348Z,6.16
2023-04-26T22:15:30.060Z,6.11
2023-04-26T22:17:56.712Z,6.02
2023-04-26T22:20:23.370Z,6.08
2023-04-26T22:22:49.917Z,5.98
2023-04-26T22:25:16.490Z,6.01
2023-04-26T22:27:42.935Z,6.15
2023-04-26T22:30:23.691Z,6.04
2023-04-26T22:32:57.170Z,6.16
2023-04-26T22:35:25.146Z,6.15
2023-04-26T22:37:51.802Z,6.05
2023-04-26T22:40:18.652Z,6.10
2023-04-26T22:42:45.365Z,6.15
2023-04-26T22:45:12.714Z,6.11
2023-04-26T22:47:40.268Z,6.06
2023-04-26T22:50:08.005Z,5.97
2023-04-26T22:52:35.220Z,5.97
2023-04-26T22:55:01.878Z,6.01
2023-04-26T22:57:29.563Z,5.94
2023-04-26T22:59:56.477Z,6.00
2023-04-26T23:02:23.152Z,6.05
2023-04-26T23:04:49.794Z,5.91
2023-04-26T23:07:16.479Z,5.94
2023-04-26T23:09:43.116Z,6.02
2023-04-26T23:12:09.850Z,6.02
2023-04-26T23:14:36.388Z,5.98
2023-04-26T23:17:03.260Z,5.90
2023-04-26T23:19:29.879Z,5.86
2023-04-26T23:21:56.446Z,5.85
2023-04-26T23:24:22.952Z,5.88
2023-04-26T23:26:49.441Z,5.88
2023-04-26T23:29:15.913Z,5.77
2023-04-26T23:31:42.552Z,5.63
2023-04-26T23:34:09.229Z,5.74
2023-04-26T23:36:35.670Z,5.66
2023-04-26T23:39:02.104Z,5.61
2023-04-26T23:41:28.548Z,5.58
2023-04-26T23:43:55.038Z,5.45
2023-04-26T23:46:21.534Z,5.49
2023-04-26T23:48:48.006Z,5.48
2023-04-26T23:51:14.473Z,5.33
2023-04-26T23:53:41.097Z,5.20
2023-04-26T23:56:08.448Z,5.21
2023-04-26T23:58:35.006Z,5.18
